createdAt,value
2018-12-05T00:00:23.518Z,102175.59
2018-12-05T00:02:52.697Z,102188.55
2018-12-05T00:05:21.856Z,102188.80
2018-12-05T00:07:51.149Z,102187.29
2018-12-05T00:10:20.556Z,102192.55
2018-12-05T00:12:49.774Z,102194.47
2018-12-05T00:15:18.948Z,102194.95
2018-12-05T00:17:48.145Z,102199.21
2018-12-05T00:20:17.471Z,102194.97
2018-12-05T00:22:46.838Z,102201.05
2018-12-05T00:25:16.312Z,102199.89
2018-12-05T00:27:45.718Z,102205.78
2018-12-05T00:30:14.905Z,102202.95
2018-12-05T00:32:44.179Z,102203.20
2018-12-05T00:35:13.437Z,102205.20
2018-12-05T00:37:42.579Z,102209.68
2018-12-05T00:40:11.863Z,102216.88
2018-12-05T00:42:41.329Z,102211.61
2018-12-05T00:45:10.534Z,102206.33
2018-12-05T00:47:39.873Z,102210.01
2018-12-05T00:50:09.068Z,102210.75
2018-12-05T00:52:38.281Z,102214.34
2018-12-05T00:55:07.666Z,102220.26
2018-12-05T00:57:36.896Z,102214.02
2018-12-05T01:00:08.046Z,102213.15
2018-12-05T01:02:37.448Z,102216.17
2018-12-05T01:05:07.881Z,102222.81
2018-12-05T01:07:37.273Z,102227.06
2018-12-05T01:10:07.208Z,102221.18
2018-12-05T01:12:36.939Z,102227.53
2018-12-05T01:15:06.833Z,102231.27
2018-12-05T01:17:36.084Z,102223.59
2018-12-05T01:20:06.541Z,102232.34
2018-12-05T01:22:35.926Z,102234.45
2018-12-05T01:25:05.560Z,102242.88
2018-12-05T01:27:34.702Z,102239.52
2018-12-05T01:30:04.183Z,102243.60
2018-12-05T01:32:33.276Z,102243.29
2018-12-05T01:35:02.522Z,102245.69
2018-12-05T01:37:31.899Z,102245.34
2018-12-05T01:40:01.201Z,102248.88
2018-12-05T01:42:30.615Z,102249.84
2018-12-05T01:44:59.842Z,102249.33
2018-12-05T01:47:28.982Z,102243.73
2018-12-05T01:49:58.195Z,102246.22
2018-12-05T01:52:27.416Z,102244.84
2018-12-05T01:54:56.763Z,102243.35
2018-12-05T01:57:25.945Z,102246.77
2018-12-05T01:59:55.213Z,102242.19
2018-12-05T02:02:24.625Z,102245.33
2018-12-05T02:04:53.827Z,102243.00
2018-12-05T02:07:23.003Z,102246.45
2018-12-05T02:09:52.360Z,102252.85
2018-12-05T02:12:21.544Z,102255.03
2018-12-05T02:14:50.734Z,102256.84
2018-12-05T02:17:20.587Z,102251.70
2018-12-05T02:19:49.860Z,102255.49
2018-12-05T02:22:19.370Z,102254.03
2018-12-05T02:24:49.038Z,102255.23
2018-12-05T02:27:18.637Z,102258.27
2018-12-05T02:29:53.212Z,102257.77
2018-12-05T02:32:22.586Z,102258.89
2018-12-05T02:34:52.020Z,102256.84
2018-12-05T02:37:21.208Z,102262.77
2018-12-05T02:39:50.564Z,102264.19
2018-12-05T02:42:19.762Z,102265.94
2018-12-05T02:44:48.969Z,102266.25
2018-12-05T02:47:18.454Z,102261.70
2018-12-05T02:49:47.608Z,102269.48
2018-12-05T02:52:16.977Z,102268.50
2018-12-05T02:54:46.327Z,102267.86
2018-12-05T02:57:15.993Z,102272.97
2018-12-05T02:59:45.262Z,102273.81
2018-12-05T03:02:14.592Z,102275.41
2018-12-05T03:04:44.092Z,102278.53
2018-12-05T03:07:13.912Z,102284.34
2018-12-05T03:09:43.318Z,102284.14
2018-12-05T03:12:12.927Z,102287.44
2018-12-05T03:14:42.758Z,102291.87
2018-12-05T03:17:12.380Z,102287.80
2018-12-05T03:19:41.803Z,102293.02
2018-12-05T03:22:11.172Z,102289.72
2018-12-05T03:24:40.601Z,102286.68
2018-12-05T03:27:09.714Z,102295.16
2018-12-05T03:29:39.214Z,102293.45
2018-12-05T03:32:08.523Z,102301.00
2018-12-05T03:34:37.722Z,102301.55
2018-12-05T03:37:07.060Z,102299.48
2018-12-05T03:39:36.377Z,102309.48
2018-12-05T03:42:05.805Z,102304.11
2018-12-05T03:44:35.248Z,102303.94
2018-12-05T03:47:04.579Z,102304.25
2018-12-05T03:49:34.044Z,102304.52
2018-12-05T03:52:03.246Z,102313.13
2018-12-05T03:54:32.601Z,102314.64
2018-12-05T03:57:01.901Z,102309.33
2018-12-05T03:59:31.188Z,102304.13
2018-12-05T04:02:00.552Z,102306.81
2018-12-05T04:04:29.681Z,102302.53
2018-12-05T04:06:59.077Z,102310.31
2018-12-05T04:09:28.357Z,102323.92
2018-12-05T04:11:57.506Z,102323.55
2018-12-05T04:14:27.015Z,102318.78
2018-12-05T04:16:56.487Z,102323.26
2018-12-05T04:19:25.743Z,102323.05
2018-12-05T04:21:55.185Z,102330.28
2018-12-05T04:24:24.359Z,102322.98
2018-12-05T04:26:54.018Z,102324.09
2018-12-05T04:29:23.195Z,102324.13
2018-12-05T04:31:52.517Z,102330.95
2018-12-05T04:34:22.291Z,102331.91
2018-12-05T04:36:51.801Z,102329.38
2018-12-05T04:39:21.405Z,102334.45
2018-12-05T04:41:50.749Z,102325.44
2018-12-05T04:44:20.160Z,102329.69
2018-12-05T04:46:49.584Z,102338.39
2018-12-05T04:49:19.174Z,102329.75
2018-12-05T04:51:48.362Z,102338.08
2018-12-05T04:54:17.582Z,102339.39
2018-12-05T04:56:47.329Z,102342.53
2018-12-05T04:59:16.411Z,102349.97
2018-12-05T05:01:45.574Z,102355.18
2018-12-05T05:04:15.220Z,102355.31
2018-12-05T05:06:44.427Z,102356.16
2018-12-05T05:09:13.625Z,102353.90
2018-12-05T05:11:42.875Z,102358.87
2018-12-05T05:14:12.633Z,102363.72
2018-12-05T05:16:42.341Z,102363.62
2018-12-05T05:19:11.547Z,102371.92
2018-12-05T05:21:40.756Z,102373.43
2018-12-05T05:24:10.194Z,102367.45
2018-12-05T05:26:39.386Z,102369.54
2018-12-05T05:29:08.821Z,102374.47
2018-12-05T05:31:38.102Z,102373.30
2018-12-05T05:34:07.554Z,102375.55
2018-12-05T05:36:37.126Z,102374.11
2018-12-05T05:39:08.600Z,102375.69
2018-12-05T05:41:37.675Z,102382.48
2018-12-05T05:44:07.137Z,102385.69
2018-12-05T05:46:36.634Z,102386.84
2018-12-05T05:49:05.798Z,102388.86
2018-12-05T05:51:35.112Z,102390.72
2018-12-05T05:54:04.322Z,102391.27
2018-12-05T05:56:34.013Z,102386.91
2018-12-05T05:59:03.263Z,102381.63
2018-12-05T06:01:32.756Z,102374.88
2018-12-05T06:04:02.021Z,102380.27
2018-12-05T06:06:31.238Z,102385.25
2018-12-05T06:09:00.572Z,102379.17
2018-12-05T06:11:29.768Z,102384.88
2018-12-05T06:13:58.891Z,102388.12
2018-12-05T06:16:28.171Z,102386.33
2018-12-05T06:18:57.729Z,102389.98
2018-12-05T06:21:27.118Z,102390.33
2018-12-05T06:23:56.845Z,102404.27
2018-12-05T06:26:26.230Z,102407.80
2018-12-05T06:28:55.502Z,102408.77
2018-12-05T06:31:24.793Z,102412.34
2018-12-05T06:33:54.095Z,102410.83
2018-12-05T06:36:23.554Z,102410.78
2018-12-05T06:38:53.161Z,102423.24
2018-12-05T06:41:23.011Z,102430.08
2018-12-05T06:43:52.509Z,102425.05
2018-12-05T06:46:21.740Z,102421.77
2018-12-05T06:48:51.004Z,102425.40
2018-12-05T06:51:20.241Z,102432.17
2018-12-05T06:53:49.539Z,102432.87
2018-12-05T06:56:19.121Z,102437.05
2018-12-05T06:58:48.993Z,102428.80
2018-12-05T07:01:18.451Z,102436.69
2018-12-05T07:03:47.544Z,102438.25
2018-12-05T07:06:17.013Z,102443.23
2018-12-05T07:08:46.775Z,102448.80
2018-12-05T07:11:16.401Z,102456.84
2018-12-05T07:13:45.830Z,102463.41
2018-12-05T07:16:15.055Z,102466.91
2018-12-05T07:18:44.854Z,102473.47
2018-12-05T07:21:14.259Z,102476.12
2018-12-05T07:23:43.713Z,102478.86
2018-12-05T07:26:13.018Z,102478.46
2018-12-05T07:28:42.315Z,102485.25
2018-12-05T07:31:11.535Z,102494.38
2018-12-05T07:33:40.996Z,102487.94
2018-12-05T07:36:10.252Z,102495.36
2018-12-05T07:38:39.411Z,102498.44
2018-12-05T07:41:08.901Z,102500.07
2018-12-05T07:43:38.337Z,102501.00
2018-12-05T07:46:07.821Z,102497.38
2018-12-05T07:48:36.984Z,102498.84
2018-12-05T07:51:06.379Z,102499.51
2018-12-05T07:53:35.842Z,102496.48
2018-12-05T07:56:05.220Z,102502.68
2018-12-05T07:58:34.599Z,102495.48
2018-12-05T08:01:04.004Z,102495.78
2018-12-05T08:03:33.259Z,102492.91
2018-12-05T08:06:02.629Z,102492.65
2018-12-05T08:08:32.154Z,102490.06
2018-12-05T08:11:01.571Z,102495.08
2018-12-05T08:13:31.182Z,102493.77
2018-12-05T08:16:00.578Z,102482.36
2018-12-05T08:18:30.064Z,102488.73
2018-12-05T08:20:59.446Z,102488.97
2018-12-05T08:23:28.677Z,102485.41
2018-12-05T08:25:58.055Z,102489.67
2018-12-05T08:28:27.676Z,102493.13
2018-12-05T08:30:57.249Z,102501.14
2018-12-05T08:33:26.646Z,102506.23
2018-12-05T08:35:55.882Z,102507.13
2018-12-05T08:38:25.142Z,102494.48
2018-12-05T08:43:33.493Z,102499.63
2018-12-05T08:46:02.984Z,102491.89
2018-12-05T08:48:32.691Z,102495.13
2018-12-05T08:51:02.036Z,102492.78
2018-12-05T08:53:31.208Z,102499.50
2018-12-05T08:56:00.936Z,102494.55
2018-12-05T08:58:30.815Z,102483.92
2018-12-05T09:01:00.254Z,102497.31
2018-12-05T09:03:29.919Z,102499.53
2018-12-05T09:05:59.323Z,102499.12
2018-12-05T09:08:28.536Z,102489.54
2018-12-05T09:10:57.957Z,102490.19
2018-12-05T09:13:27.492Z,102491.75
2018-12-05T09:15:57.454Z,102494.92
2018-12-05T09:18:26.833Z,102498.07
2018-12-05T09:20:56.144Z,102499.61
2018-12-05T09:23:25.427Z,102498.38
2018-12-05T09:25:54.624Z,102496.17
2018-12-05T09:28:23.881Z,102498.34
2018-12-05T09:30:53.077Z,102501.10
2018-12-05T09:33:22.250Z,102496.20
2018-12-05T09:35:51.538Z,102490.52
2018-12-05T09:38:21.370Z,102496.42
2018-12-05T09:40:50.746Z,102493.80
2018-12-05T09:43:20.059Z,102478.43
2018-12-05T09:45:49.758Z,102486.43
2018-12-05T09:48:19.238Z,102489.55
2018-12-05T09:50:48.749Z,102490.28
2018-12-05T09:53:17.963Z,102493.41
2018-12-05T09:55:47.217Z,102492.38
2018-12-05T09:58:16.743Z,102491.96
2018-12-05T10:00:45.965Z,102499.41
2018-12-05T10:03:15.444Z,102495.40
2018-12-05T10:05:44.613Z,102498.61
2018-12-05T10:08:14.044Z,102490.30
2018-12-05T10:10:43.230Z,102500.72
2018-12-05T10:13:12.525Z,102495.90
2018-12-05T10:15:41.941Z,102494.46
2018-12-05T10:18:11.986Z,102495.56
2018-12-05T10:20:41.193Z,102496.88
2018-12-05T10:23:10.372Z,102491.20
2018-12-05T10:25:39.534Z,102493.45
2018-12-05T10:28:08.815Z,102484.55
2018-12-05T10:30:38.013Z,102477.44
2018-12-05T10:33:07.466Z,102480.77
2018-12-05T10:35:36.582Z,102476.89
2018-12-05T10:38:06.032Z,102481.97
2018-12-05T10:40:35.464Z,102480.72
2018-12-05T10:43:04.714Z,102477.39
2018-12-05T10:45:34.737Z,102475.35
2018-12-05T10:48:04.097Z,102472.86
2018-12-05T10:50:33.257Z,102471.11
2018-12-05T10:53:02.758Z,102466.51
2018-12-05T10:55:31.961Z,102465.20
2018-12-05T10:58:01.319Z,102462.78
2018-12-05T11:00:36.022Z,102464.54
2018-12-05T11:03:10.646Z,102466.38
2018-12-05T11:05:45.070Z,102460.05
2018-12-05T11:08:25.538Z,102458.27
2018-12-05T11:11:58.837Z,102456.52
2018-12-05T11:14:33.813Z,102449.52
2018-12-05T11:17:08.530Z,102446.81
2018-12-05T11:19:42.871Z,102440.55
2018-12-05T11:22:17.784Z,102443.29
2018-12-05T11:24:47.923Z,102445.00
2018-12-05T11:27:17.138Z,102441.52
2018-12-05T11:29:46.462Z,102442.29
2018-12-05T11:32:16.006Z,102443.80
2018-12-05T11:34:45.590Z,102438.44
2018-12-05T11:37:14.767Z,102434.77
2018-12-05T11:39:44.495Z,102433.86
2018-12-05T11:42:13.749Z,102435.45
2018-12-05T11:44:43.004Z,102442.17
2018-12-05T11:47:12.137Z,102437.14
2018-12-05T11:49:41.604Z,102436.77
2018-12-05T11:52:10.870Z,102429.30
2018-12-05T11:54:40.360Z,102426.08
2018-12-05T11:57:10.125Z,102426.68
2018-12-05T11:59:39.731Z,102421.89
2018-12-05T12:02:09.104Z,102422.90
2018-12-05T12:04:38.340Z,102414.93
2018-12-05T12:07:07.518Z,102408.23
2018-12-05T12:09:36.905Z,102403.95
2018-12-05T12:12:08.704Z,102404.52
2018-12-05T12:14:38.092Z,102405.41
2018-12-05T12:17:07.621Z,102397.97
2018-12-05T12:19:36.777Z,102399.91
2018-12-05T12:22:05.993Z,102396.24
2018-12-05T12:24:35.211Z,102395.30
2018-12-05T12:27:04.437Z,102390.13
2018-12-05T12:29:33.570Z,102392.62
2018-12-05T12:32:03.184Z,102394.35
2018-12-05T12:34:33.619Z,102397.77
2018-12-05T12:37:04.032Z,102391.88
2018-12-05T12:39:33.384Z,102391.28
2018-12-05T12:42:02.763Z,102383.03
2018-12-05T12:44:32.161Z,102381.28
2018-12-05T12:47:01.500Z,102376.85
2018-12-05T12:49:30.794Z,102372.95
2018-12-05T12:52:00.282Z,102379.66
2018-12-05T12:54:29.641Z,102378.02
2018-12-05T12:56:58.881Z,102370.73
2018-12-05T12:59:28.253Z,102377.34
2018-12-05T13:01:57.570Z,102384.99
2018-12-05T13:04:26.761Z,102378.77
2018-12-05T13:06:56.004Z,102374.23
2018-12-05T13:09:25.157Z,102382.87
2018-12-05T13:11:54.381Z,102374.89
2018-12-05T13:14:23.558Z,102372.34
2018-12-05T13:16:52.712Z,102372.06
2018-12-05T13:22:00.686Z,102361.59
2018-12-05T13:24:30.169Z,102363.06
2018-12-05T13:26:59.526Z,102370.50
2018-12-05T13:29:28.701Z,102368.47
2018-12-05T13:31:58.097Z,102367.80
2018-12-05T13:34:27.252Z,102364.27
2018-12-05T13:36:56.393Z,102356.41
2018-12-05T13:39:25.650Z,102354.42
2018-12-05T13:41:54.951Z,102361.56
2018-12-05T13:44:24.141Z,102357.84
2018-12-05T13:46:53.307Z,102351.92
2018-12-05T13:49:22.462Z,102360.02
2018-12-05T13:51:51.562Z,102350.56
2018-12-05T13:54:20.798Z,102350.81
2018-12-05T13:56:50.040Z,102338.77
2018-12-05T13:59:19.410Z,102341.61
2018-12-05T14:01:49.021Z,102339.23
2018-12-05T14:04:18.339Z,102342.35
2018-12-05T14:06:47.675Z,102341.61
2018-12-05T14:09:17.048Z,102349.42
2018-12-05T14:11:46.272Z,102340.11
2018-12-05T14:14:15.474Z,102342.35
2018-12-05T14:16:44.661Z,102343.55
2018-12-05T14:19:13.865Z,102338.28
2018-12-05T14:21:43.130Z,102333.66
2018-12-05T14:24:12.305Z,102329.13
2018-12-05T14:26:41.726Z,102327.84
2018-12-05T14:29:10.963Z,102327.38
2018-12-05T14:31:40.202Z,102321.15
2018-12-05T14:34:09.769Z,102325.14
2018-12-05T14:36:39.231Z,102320.86
2018-12-05T14:39:08.844Z,102314.44
2018-12-05T14:41:38.153Z,102312.01
2018-12-05T14:44:07.297Z,102317.14
2018-12-05T14:46:36.574Z,102312.94
2018-12-05T14:49:05.723Z,102318.26
2018-12-05T14:51:34.920Z,102323.92
2018-12-05T14:54:04.082Z,102324.73
2018-12-05T14:56:33.279Z,102325.78
2018-12-05T14:59:02.547Z,102319.28
2018-12-05T15:01:31.737Z,102325.63
2018-12-05T15:04:01.549Z,102318.83
2018-12-05T15:06:30.738Z,102325.03
2018-12-05T15:09:00.106Z,102312.98
2018-12-05T15:11:29.332Z,102318.81
2018-12-05T15:13:58.517Z,102313.55
2018-12-05T15:16:27.788Z,102308.15
2018-12-05T15:18:57.584Z,102312.59
2018-12-05T15:21:26.741Z,102304.02
2018-12-05T15:23:56.075Z,102310.31
2018-12-05T15:26:32.537Z,102297.70
2018-12-05T15:29:01.964Z,102292.08
2018-12-05T15:31:31.361Z,102288.63
2018-12-05T15:34:00.705Z,102298.16
2018-12-05T15:36:30.424Z,102284.83
2018-12-05T15:38:59.936Z,102280.80
2018-12-05T15:41:29.140Z,102277.13
2018-12-05T15:43:58.714Z,102275.71
2018-12-05T15:46:28.010Z,102269.93
2018-12-05T15:48:57.485Z,102268.89
2018-12-05T15:51:27.025Z,102263.89
2018-12-05T15:53:56.261Z,102261.19
2018-12-05T15:56:25.497Z,102246.72
2018-12-05T15:58:54.774Z,102256.89
2018-12-05T16:01:23.941Z,102254.73
2018-12-05T16:03:53.462Z,102246.95
2018-12-05T16:06:22.837Z,102249.74
2018-12-05T16:08:52.009Z,102246.86
2018-12-05T16:11:21.330Z,102252.23
2018-12-05T16:13:51.037Z,102254.47
2018-12-05T16:16:20.189Z,102248.95
2018-12-05T16:18:49.465Z,102243.87
2018-12-05T16:21:18.614Z,102241.17
2018-12-05T16:23:47.801Z,102243.84
2018-12-05T16:26:17.062Z,102242.08
2018-12-05T16:28:46.266Z,102243.33
2018-12-05T16:31:15.793Z,102236.41
2018-12-05T16:33:44.959Z,102240.30
2018-12-05T16:36:14.113Z,102243.43
2018-12-05T16:38:44.326Z,102237.73
2018-12-05T16:41:18.166Z,102232.38
2018-12-05T16:46:33.203Z,102237.59
2018-12-05T16:49:02.529Z,102234.36
2018-12-05T16:51:31.716Z,102231.50
2018-12-05T16:54:00.892Z,102226.84
2018-12-05T16:56:30.159Z,102219.63
2018-12-05T16:58:59.546Z,102212.20
2018-12-05T17:01:32.176Z,102218.84
2018-12-05T17:04:01.654Z,102214.99
2018-12-05T17:06:31.406Z,102220.43
2018-12-05T17:09:01.598Z,102218.77
2018-12-05T17:11:31.247Z,102219.62
2018-12-05T17:14:00.490Z,102216.03
2018-12-05T17:16:29.982Z,102218.30
2018-12-05T17:18:59.468Z,102223.89
2018-12-05T17:21:28.716Z,102229.00
2018-12-05T17:23:57.870Z,102221.95
2018-12-05T17:26:27.054Z,102218.04
2018-12-05T17:28:56.198Z,102225.48
2018-12-05T17:31:25.652Z,102225.31
2018-12-05T17:33:55.000Z,102225.31
2018-12-05T17:36:24.276Z,102215.72
2018-12-05T17:38:53.553Z,102218.98
2018-12-05T17:41:22.725Z,102217.11
2018-12-05T17:43:52.197Z,102207.09
2018-12-05T17:46:21.830Z,102204.06
2018-12-05T17:48:50.953Z,102198.73
2018-12-05T17:51:20.150Z,102193.71
2018-12-05T17:53:49.358Z,102199.14
2018-12-05T17:56:18.655Z,102190.74
2018-12-05T17:58:48.295Z,102190.16
2018-12-05T18:01:17.820Z,102180.55
2018-12-05T18:03:47.556Z,102179.09
2018-12-05T18:06:16.756Z,102171.30
2018-12-05T18:08:46.022Z,102169.06
2018-12-05T18:11:15.203Z,102169.50
2018-12-05T18:13:44.535Z,102176.44
2018-12-05T18:16:14.203Z,102162.34
2018-12-05T18:18:43.768Z,102162.36
2018-12-05T18:21:13.082Z,102161.55
2018-12-05T18:23:42.313Z,102153.56
2018-12-05T18:26:11.848Z,102153.72
2018-12-05T18:28:41.064Z,102152.13
2018-12-05T18:31:10.893Z,102158.52
2018-12-05T18:33:40.739Z,102157.70
2018-12-05T18:36:10.046Z,102149.89
2018-12-05T18:38:39.270Z,102144.91
2018-12-05T18:41:08.506Z,102145.55
2018-12-05T18:43:38.039Z,102136.84
2018-12-05T18:46:07.246Z,102139.14
2018-12-05T18:48:36.555Z,102131.70
2018-12-05T18:51:06.820Z,102137.26
2018-12-05T18:53:36.166Z,102127.06
2018-12-05T18:56:05.693Z,102125.58
2018-12-05T18:58:35.082Z,102116.37
2018-12-05T19:01:04.788Z,102117.31
2018-12-05T19:03:34.616Z,102115.49
2018-12-05T19:06:03.841Z,102110.23
2018-12-05T19:08:34.403Z,102109.41
2018-12-05T19:11:03.937Z,102106.55
2018-12-05T19:13:35.174Z,102105.44
2018-12-05T19:16:04.371Z,102112.33
2018-12-05T19:18:33.639Z,102109.56
2018-12-05T19:21:02.917Z,102102.22
2018-12-05T19:23:32.903Z,102102.99
2018-12-05T19:26:02.134Z,102091.59
2018-12-05T19:28:32.597Z,102087.38
2018-12-05T19:31:01.833Z,102074.34
2018-12-05T19:33:32.342Z,102071.71
2018-12-05T19:36:03.680Z,102076.20
2018-12-05T19:38:33.528Z,102064.75
2018-12-05T19:41:02.721Z,102069.46
2018-12-05T19:43:33.178Z,102067.63
2018-12-05T19:46:02.332Z,102068.39
2018-12-05T19:48:32.281Z,102065.48
2018-12-05T19:51:01.493Z,102069.77
2018-12-05T19:53:31.696Z,102070.37
2018-12-05T19:56:00.970Z,102073.76
2018-12-05T19:58:31.822Z,102071.49
2018-12-05T20:01:01.135Z,102068.56
2018-12-05T20:03:31.066Z,102073.33
2018-12-05T20:06:00.248Z,102068.20
2018-12-05T20:08:29.850Z,102074.42
2018-12-05T20:10:59.377Z,102075.53
2018-12-05T20:13:29.828Z,102075.87
2018-12-05T20:15:59.501Z,102068.25
2018-12-05T20:18:29.334Z,102068.47
2018-12-05T20:20:59.005Z,102067.21
2018-12-05T20:23:28.687Z,102066.95
2018-12-05T20:25:58.300Z,102068.52
2018-12-05T20:28:27.864Z,102069.70
2018-12-05T20:30:57.980Z,102058.66
2018-12-05T20:33:27.975Z,102058.92
2018-12-05T20:35:57.494Z,102059.73
2018-12-05T20:38:27.307Z,102061.83
2018-12-05T20:40:56.766Z,102057.96
2018-12-05T20:43:26.358Z,102059.73
2018-12-05T20:45:55.886Z,102052.58
2018-12-05T20:48:25.971Z,102045.47
2018-12-05T20:50:56.214Z,102029.32
2018-12-05T20:53:25.500Z,102030.16
2018-12-05T20:55:55.212Z,102020.45
2018-12-05T20:58:24.589Z,102012.86
2018-12-05T21:00:53.930Z,102018.56
2018-12-05T21:03:23.466Z,102014.79
2018-12-05T21:05:52.642Z,102016.96
2018-12-05T21:08:22.693Z,102017.78
2018-12-05T21:10:52.014Z,102012.52
2018-12-05T21:13:21.335Z,102014.33
2018-12-05T21:15:50.898Z,102011.03
2018-12-05T21:18:21.411Z,102010.08
2018-12-05T21:20:51.181Z,101999.90
2018-12-05T21:23:20.454Z,101997.26
2018-12-05T21:25:49.593Z,101999.03
2018-12-05T21:28:18.779Z,101989.76
2018-12-05T21:30:47.946Z,101978.16
2018-12-05T21:33:17.417Z,101979.76
2018-12-05T21:35:46.631Z,101966.84
2018-12-05T21:38:16.090Z,101964.27
2018-12-05T21:40:45.565Z,101972.95
2018-12-05T21:43:14.770Z,101962.31
2018-12-05T21:45:44.026Z,101953.91
2018-12-05T21:48:13.206Z,101954.31
2018-12-05T21:50:42.595Z,101948.47
2018-12-05T21:53:12.439Z,101953.00
2018-12-05T21:55:42.861Z,101953.48
2018-12-05T21:58:12.111Z,101949.02
2018-12-05T22:00:41.537Z,101943.35
2018-12-05T22:03:10.848Z,101941.94
2018-12-05T22:05:40.507Z,101934.84
2018-12-05T22:08:09.929Z,101942.37
2018-12-05T22:10:39.254Z,101934.09
2018-12-05T22:13:09.226Z,101934.48
2018-12-05T22:15:39.505Z,101927.12
2018-12-05T22:18:08.656Z,101924.56
2018-12-05T22:20:38.292Z,101923.43
2018-12-05T22:23:07.512Z,101925.80
2018-12-05T22:25:37.093Z,101919.23
2018-12-05T22:28:07.043Z,101930.20
2018-12-05T22:30:37.043Z,101920.59
2018-12-05T22:33:06.660Z,101906.24
2018-12-05T22:35:36.145Z,101908.44
2018-12-05T22:38:05.334Z,101909.59
2018-12-05T22:40:34.951Z,101899.75
2018-12-05T22:43:04.073Z,101898.63
2018-12-05T22:45:33.579Z,101893.73
2018-12-05T22:48:03.064Z,101884.55
2018-12-05T22:50:32.891Z,101883.22
2018-12-05T22:53:02.088Z,101877.42
2018-12-05T22:55:32.086Z,101878.82
2018-12-05T22:58:01.281Z,101872.85
2018-12-05T23:00:30.942Z,101867.09
2018-12-05T23:03:00.151Z,101855.08
2018-12-05T23:05:29.450Z,101848.69
2018-12-05T23:07:58.637Z,101849.50
2018-12-05T23:10:27.819Z,101844.30
2018-12-05T23:12:57.034Z,101843.02
2018-12-05T23:15:26.850Z,101832.02
2018-12-05T23:17:56.359Z,101830.44
2018-12-05T23:20:25.920Z,101822.55
2018-12-05T23:22:56.341Z,101825.45
2018-12-05T23:25:26.312Z,101818.77
2018-12-05T23:27:55.731Z,101816.03
2018-12-05T23:30:25.007Z,101810.09
2018-12-05T23:32:54.229Z,101799.87
2018-12-05T23:35:23.627Z,101792.47
2018-12-05T23:37:52.996Z,101792.47
2018-12-05T23:40:22.339Z,101785.98
2018-12-05T23:42:51.733Z,101785.24
2018-12-05T23:45:21.175Z,101787.41
2018-12-05T23:47:50.337Z,101790.02
2018-12-05T23:50:19.861Z,101788.94
2018-12-05T23:52:49.404Z,101782.36
2018-12-05T23:55:18.530Z,101771.31
2018-12-05T23:57:47.821Z,101772.86
